Airfield :
LOGIN :

Register | Disclaimer

   EN    FR    IT 

 










Legend :    VFR   Marginal VFR   IFR   Intensive IFR   Very Intensive IFR
Visi :
Ceiling :
>= 8 km
>= 3000ft
5 to 8 km
1000 to 3000 ft
1500m to 5 km
500 to 1000 ft
800 to 1500m
200 to 500 ft
< 800m
< 200 ft
Symbols :   Thunderstorms  Fog  Heavy snow  Heavy precipitations  Wind > 20 kt
SIGMETs :     Misc.  Thunderstorms  Icing  Turbulence  Mountain Waves  Volcanic Ashes







- Airport Elevation : 412 ft
- IATA code : ORE
- Download approach charts


LFOJ - Orleans

CURRENT METAR :
  • 150030Z AUTO 22014KT 9999 FEW027 BKN047 BKN170 04/02 Q0997

EXPIRED METARs :
  • 150000Z AUTO 22013KT CAVOK 04/02 Q0997
  • 142330Z AUTO 22012KT CAVOK 03/02 Q0997
  • 142300Z AUTO 23012KT CAVOK 03/02 Q0997
  • 142230Z AUTO 23012KT 9999 FEW018 03/02 Q0997
  • 142200Z AUTO 25013KT 9999 FEW021 03/02 Q0997 NOSIG

TAF TAF LFOJ
Valid from the 14 at 21:00 until the 15 at 21:00 UTC


142000Z 1421/1521 25015KT 9999 SCT020
BECMG 1506/1508 SCT010 BKN015CB
TEMPO 1508/1520 3000 SHGS BKN007 BKN015CB
PROB40
TEMPO 1512/1518 31020G30KT
No reported NOTAMs for that airfield.
1 SIGMET reported for the Paris FIR (LFFF) :
 
Severe turbulence
LFFF SIGMET 14 VALID 142300/150300 LFPW
LFFF PARIS FIR/UIR SEV TURB FCST SE OF LINE N4700 E00215 - N4730 E00415 FL170/280 STNR WKN=



MET'MAP, your aeronautical weather chart ! - Copyright ORBIFLY December 2007 - Disclaimer

ORBIFLY MET'MAP TEAM :

Programming & Development : Alexandra Zaïnal
Concept & Development : Baudouin d'Aumeries
Co-Development & Prog : Marc-Olivier Méhu
Technical & hardware support : Manuel Goepfert

Contact : metmap@orbifly.com




SOURCES & CREDITS :

   NOAA